createdAt,value
2022-10-13T00:02:41.874Z,9.96
2022-10-13T00:07:44.710Z,9.81
2022-10-13T00:12:47.600Z,9.77
2022-10-13T00:17:51.021Z,9.75
2022-10-13T00:22:54.142Z,9.73
2022-10-13T00:27:56.959Z,9.69
2022-10-13T00:32:59.748Z,9.68
2022-10-13T00:38:02.306Z,9.60
2022-10-13T00:43:14.487Z,9.53
2022-10-13T00:48:23.981Z,9.48
2022-10-13T00:53:33.169Z,9.45
2022-10-13T00:58:39.178Z,9.40
2022-10-13T01:03:41.939Z,9.38
2022-10-13T01:08:44.794Z,9.34
2022-10-13T01:13:54.775Z,9.35
2022-10-13T01:19:35.024Z,9.33
2022-10-13T01:24:43.388Z,9.32
2022-10-13T01:30:03.825Z,9.28
2022-10-13T01:35:14.219Z,9.23
2022-10-13T01:40:29.195Z,9.21
2022-10-13T01:45:38.506Z,9.19
2022-10-13T01:50:41.595Z,9.19
2022-10-13T01:55:52.984Z,9.22
2022-10-13T02:01:18.551Z,9.28
2022-10-13T02:06:31.250Z,9.33
2022-10-13T02:11:34.131Z,9.34
2022-10-13T02:16:41.126Z,9.34
2022-10-13T02:21:45.274Z,9.30
2022-10-13T02:26:48.306Z,9.20
2022-10-13T02:31:51.242Z,9.13
2022-10-13T02:36:54.064Z,9.01
2022-10-13T02:41:56.960Z,8.96
2022-10-13T02:47:00.172Z,8.93
2022-10-13T02:52:03.167Z,8.84
2022-10-13T02:57:05.919Z,8.78
2022-10-13T03:02:08.685Z,8.73
2022-10-13T03:07:11.791Z,8.71
2022-10-13T03:12:14.630Z,8.63
2022-10-13T03:17:17.581Z,8.59
2022-10-13T03:22:20.835Z,8.58
2022-10-13T03:27:24.104Z,8.61
2022-10-13T03:32:26.892Z,8.59
2022-10-13T03:37:30.743Z,8.59
2022-10-13T03:42:35.962Z,8.49
2022-10-13T03:47:38.726Z,8.45
2022-10-13T03:52:41.501Z,8.37
2022-10-13T03:57:44.253Z,8.33
2022-10-13T04:02:49.539Z,8.33
2022-10-13T04:07:52.319Z,8.31
2022-10-13T04:12:55.087Z,8.27
2022-10-13T04:17:57.827Z,8.24
2022-10-13T04:23:01.109Z,8.18
2022-10-13T04:28:05.759Z,8.15
2022-10-13T04:33:08.727Z,8.16
2022-10-13T04:38:11.479Z,8.11
2022-10-13T04:43:15.924Z,8.11
2022-10-13T04:48:18.730Z,8.09
2022-10-13T04:53:22.645Z,8.10
2022-10-13T04:58:25.633Z,8.09
2022-10-13T05:03:28.548Z,8.10
2022-10-13T05:08:33.196Z,8.09
2022-10-13T05:13:36.487Z,8.08
2022-10-13T05:18:39.683Z,8.05
2022-10-13T05:23:42.913Z,8.06
2022-10-13T05:28:46.685Z,8.04
2022-10-13T05:33:50.381Z,8.02
2022-10-13T05:38:55.386Z,8.01
2022-10-13T05:44:01.500Z,8.00
2022-10-13T05:49:04.687Z,8.05
2022-10-13T05:54:12.452Z,8.13
2022-10-13T05:59:17.406Z,8.23
2022-10-13T06:04:31.891Z,8.37
2022-10-13T06:09:37.929Z,8.48
2022-10-13T06:14:40.994Z,8.67
2022-10-13T06:19:45.711Z,8.89
2022-10-13T06:24:49.002Z,9.11
2022-10-13T06:29:51.801Z,9.35
2022-10-13T06:34:54.727Z,9.55
2022-10-13T06:39:57.529Z,9.70
2022-10-13T06:45:00.439Z,9.88
2022-10-13T06:50:03.547Z,10.00
2022-10-13T06:55:06.540Z,10.09
2022-10-13T07:00:09.947Z,10.20
2022-10-13T07:05:12.740Z,10.32
2022-10-13T07:10:15.679Z,10.44
2022-10-13T07:15:18.496Z,10.60
2022-10-13T07:20:22.678Z,10.79
2022-10-13T07:25:25.883Z,10.99
2022-10-13T07:30:28.678Z,11.22
2022-10-13T07:35:31.456Z,11.45
2022-10-13T07:40:34.607Z,11.59
2022-10-13T07:45:37.385Z,11.74
2022-10-13T07:50:40.125Z,11.90
2022-10-13T07:55:42.712Z,12.05
2022-10-13T08:00:45.547Z,12.10
2022-10-13T08:05:48.340Z,12.16
2022-10-13T08:10:51.468Z,12.26
2022-10-13T08:15:54.087Z,12.38
2022-10-13T08:21:23.976Z,12.51
2022-10-13T08:26:27.056Z,12.73
2022-10-13T08:31:30.262Z,12.79
2022-10-13T08:36:33.168Z,13.06
2022-10-13T08:41:46.050Z,13.29
2022-10-13T08:47:09.334Z,13.35
2022-10-13T08:52:26.973Z,13.49
2022-10-13T08:57:30.624Z,13.59
2022-10-13T09:02:33.244Z,13.82
2022-10-13T09:07:37.173Z,14.02
2022-10-13T09:12:39.992Z,14.18
2022-10-13T09:17:42.845Z,14.38
2022-10-13T09:23:00.011Z,14.54
2022-10-13T09:28:09.524Z,14.73
2022-10-13T09:33:12.440Z,14.96
2022-10-13T09:38:21.446Z,15.15
2022-10-13T09:43:31.843Z,15.33
2022-10-13T09:48:36.705Z,15.49
2022-10-13T09:53:40.940Z,15.78
2022-10-13T09:59:14.632Z,16.02
2022-10-13T10:04:23.106Z,16.27
2022-10-13T10:09:41.552Z,16.39
2022-10-13T10:14:44.464Z,16.35
2022-10-13T10:19:59.261Z,16.58
2022-10-13T10:25:40.011Z,16.99
2022-10-13T10:30:50.111Z,17.36
2022-10-13T10:35:54.739Z,17.59
2022-10-13T10:40:57.527Z,17.91
2022-10-13T10:46:00.892Z,18.44
2022-10-13T10:51:06.605Z,18.99
2022-10-13T10:56:09.680Z,19.57
2022-10-13T11:01:12.548Z,20.28
2022-10-13T11:06:18.518Z,20.99
2022-10-13T11:11:32.298Z,21.76
2022-10-13T11:16:40.988Z,22.29
2022-10-13T11:21:52.976Z,22.75
2022-10-13T11:26:56.002Z,23.08
2022-10-13T11:31:58.897Z,23.59
2022-10-13T11:37:03.105Z,23.97
2022-10-13T11:42:12.315Z,24.22
2022-10-13T11:47:55.918Z,24.00
2022-10-13T11:53:11.594Z,23.64
2022-10-13T11:58:17.518Z,23.00
2022-10-13T12:03:31.916Z,22.04
2022-10-13T12:08:36.125Z,21.30
2022-10-13T12:13:39.272Z,20.72
2022-10-13T12:18:41.949Z,20.20
2022-10-13T12:23:45.086Z,19.72
2022-10-13T12:29:05.264Z,19.38
2022-10-13T12:34:25.636Z,19.07
2022-10-13T12:39:30.946Z,18.89
2022-10-13T12:44:34.087Z,18.72
2022-10-13T12:49:37.222Z,18.63
2022-10-13T12:54:47.310Z,18.47
2022-10-13T12:59:50.139Z,18.41
2022-10-13T13:04:53.154Z,18.38
2022-10-13T13:10:20.018Z,18.33
2022-10-13T13:15:26.096Z,18.34
2022-10-13T13:20:34.780Z,18.34
2022-10-13T13:25:37.653Z,18.34
2022-10-13T13:30:41.098Z,18.31
2022-10-13T13:35:43.875Z,18.28
2022-10-13T13:40:46.655Z,18.24
2022-10-13T13:45:49.544Z,18.16
2022-10-13T13:50:52.334Z,18.16
2022-10-13T13:55:55.240Z,18.12
2022-10-13T14:00:59.753Z,18.08
2022-10-13T14:06:02.417Z,18.05
2022-10-13T14:11:08.509Z,18.02
2022-10-13T14:16:16.056Z,17.98
2022-10-13T14:21:18.903Z,17.90
2022-10-13T14:26:21.739Z,17.85
2022-10-13T14:31:24.866Z,17.83
2022-10-13T14:36:28.297Z,17.76
2022-10-13T14:41:31.149Z,17.72
2022-10-13T14:46:33.970Z,17.67
2022-10-13T14:51:36.735Z,17.63
2022-10-13T14:56:39.526Z,17.60
2022-10-13T15:01:42.749Z,17.51
2022-10-13T15:06:45.530Z,17.44
2022-10-13T15:11:48.348Z,17.28
2022-10-13T15:16:51.535Z,17.13
2022-10-13T15:21:54.429Z,16.95
2022-10-13T15:26:57.263Z,16.74
2022-10-13T15:32:11.362Z,16.50
2022-10-13T15:37:14.252Z,16.23
2022-10-13T15:42:17.138Z,16.00
2022-10-13T15:47:19.969Z,15.78
2022-10-13T15:52:22.989Z,15.56
2022-10-13T15:57:26.062Z,15.36
2022-10-13T16:02:28.888Z,15.10
2022-10-13T16:07:32.519Z,14.84
2022-10-13T16:12:35.669Z,14.58
2022-10-13T16:17:38.544Z,14.30
2022-10-13T16:22:41.272Z,14.05
2022-10-13T16:27:44.712Z,13.78
2022-10-13T16:32:47.686Z,13.52
2022-10-13T16:37:50.860Z,13.36
2022-10-13T16:42:53.896Z,13.24
2022-10-13T16:47:57.378Z,13.17
2022-10-13T16:53:00.148Z,13.10
2022-10-13T16:58:03.013Z,13.01
2022-10-13T17:03:06.777Z,12.87
2022-10-13T17:08:09.608Z,12.78
2022-10-13T17:13:12.524Z,12.64
2022-10-13T17:18:15.335Z,12.53
2022-10-13T17:23:18.303Z,12.43
2022-10-13T17:28:21.834Z,12.33
2022-10-13T17:33:25.081Z,12.22
2022-10-13T17:38:28.798Z,12.11
2022-10-13T17:43:32.970Z,12.04
2022-10-13T17:48:35.772Z,11.94
2022-10-13T17:53:39.914Z,11.88
2022-10-13T17:58:43.252Z,11.81
2022-10-13T18:03:47.802Z,11.71
2022-10-13T18:08:51.598Z,11.52
2022-10-13T18:13:54.601Z,11.38
2022-10-13T18:18:57.499Z,11.30
2022-10-13T18:24:02.109Z,11.29
2022-10-13T18:29:06.442Z,11.28
2022-10-13T18:34:14.130Z,11.22
2022-10-13T18:39:19.663Z,11.15
2022-10-13T18:44:24.218Z,11.15
2022-10-13T18:49:33.573Z,11.07
2022-10-13T18:54:36.364Z,10.99
2022-10-13T18:59:39.023Z,10.93
2022-10-13T19:04:41.857Z,10.85
2022-10-13T19:09:45.079Z,10.77
2022-10-13T19:14:47.835Z,10.72
2022-10-13T19:19:50.874Z,10.64
2022-10-13T19:24:53.798Z,10.57
2022-10-13T19:29:56.591Z,10.51
2022-10-13T19:34:59.449Z,10.44
2022-10-13T19:40:02.528Z,10.40
2022-10-13T19:45:06.053Z,10.30
2022-10-13T19:50:08.915Z,10.22
2022-10-13T19:55:11.769Z,10.12
2022-10-13T20:00:15.381Z,10.06
2022-10-13T20:05:20.928Z,9.97
2022-10-13T20:10:27.523Z,9.93
2022-10-13T20:15:30.272Z,9.86
2022-10-13T20:20:35.173Z,9.82
2022-10-13T20:25:38.289Z,9.76
2022-10-13T20:30:41.062Z,9.72
2022-10-13T20:35:44.146Z,9.69
2022-10-13T20:40:47.971Z,9.69
2022-10-13T20:45:59.770Z,9.67
2022-10-13T20:51:04.431Z,9.63
2022-10-13T20:56:08.868Z,9.59
2022-10-13T21:01:12.398Z,9.56
2022-10-13T21:06:15.307Z,9.54
2022-10-13T21:11:20.201Z,9.53
2022-10-13T21:16:27.322Z,9.47
2022-10-13T21:21:33.367Z,9.43
2022-10-13T21:26:37.151Z,9.37
2022-10-13T21:31:39.956Z,9.33
2022-10-13T21:36:44.576Z,9.29
2022-10-13T21:41:47.452Z,9.20
2022-10-13T21:46:50.305Z,9.14
2022-10-13T21:51:53.086Z,9.08
2022-10-13T21:56:55.974Z,9.05
2022-10-13T22:01:58.772Z,9.02
2022-10-13T22:07:01.736Z,9.00
2022-10-13T22:12:05.399Z,8.99
2022-10-13T22:17:08.555Z,8.99
2022-10-13T22:22:11.389Z,8.95
2022-10-13T22:27:14.244Z,8.90
2022-10-13T22:32:17.090Z,8.86
2022-10-13T22:37:20.279Z,8.82
2022-10-13T22:42:23.755Z,8.80
2022-10-13T22:47:26.667Z,8.79
2022-10-13T22:52:29.240Z,8.75
2022-10-13T22:57:32.098Z,8.71
2022-10-13T23:02:34.926Z,8.68
2022-10-13T23:07:37.689Z,8.66
2022-10-13T23:12:40.475Z,8.63
2022-10-13T23:17:43.326Z,8.60
2022-10-13T23:22:46.069Z,8.57
2022-10-13T23:27:48.869Z,8.52
2022-10-13T23:32:51.714Z,8.50
2022-10-13T23:37:54.625Z,8.39
2022-10-13T23:42:57.248Z,8.36
2022-10-13T23:48:00.002Z,8.31
2022-10-13T23:53:03.397Z,8.26
2022-10-13T23:58:06.683Z,8.25
